sensor_id;sensor_type;location;lat;lon;timestamp;pressure;altitude;pressure_sealevel;temperature
4421;BMP180;11824;51.178;13.546;2024-03-08T00:00:57;100850.00;;;3.60
4421;BMP180;11824;51.178;13.546;2024-03-08T00:03:25;100839.00;;;3.50
4421;BMP180;11824;51.178;13.546;2024-03-08T00:05:56;100846.00;;;3.40
4421;BMP180;11824;51.178;13.546;2024-03-08T00:08:25;100847.00;;;3.30
4421;BMP180;11824;51.178;13.546;2024-03-08T00:10:54;100835.00;;;3.10
4421;BMP180;11824;51.178;13.546;2024-03-08T00:13:23;100833.00;;;3.00
4421;BMP180;11824;51.178;13.546;2024-03-08T00:15:52;100831.00;;;2.90
4421;BMP180;11824;51.178;13.546;2024-03-08T00:18:22;100821.00;;;2.80
4421;BMP180;11824;51.178;13.546;2024-03-08T00:20:51;100823.00;;;2.70
4421;BMP180;11824;51.178;13.546;2024-03-08T00:23:20;100824.00;;;2.60
4421;BMP180;11824;51.178;13.546;2024-03-08T00:25:49;100821.00;;;2.50
4421;BMP180;11824;51.178;13.546;2024-03-08T00:28:18;100816.00;;;2.40
4421;BMP180;11824;51.178;13.546;2024-03-08T00:30:47;100827.00;;;2.30
4421;BMP180;11824;51.178;13.546;2024-03-08T00:33:15;100825.00;;;2.20
4421;BMP180;11824;51.178;13.546;2024-03-08T00:35:46;100824.00;;;2.00
4421;BMP180;11824;51.178;13.546;2024-03-08T00:38:15;100831.00;;;1.90
4421;BMP180;11824;51.178;13.546;2024-03-08T00:40:44;100826.00;;;1.80
4421;BMP180;11824;51.178;13.546;2024-03-08T00:43:12;100830.00;;;1.70
4421;BMP180;11824;51.178;13.546;2024-03-08T00:45:43;100832.00;;;1.60
4421;BMP180;11824;51.178;13.546;2024-03-08T00:50:40;100821.00;;;1.50
4421;BMP180;11824;51.178;13.546;2024-03-08T00:53:10;100807.00;;;1.40
4421;BMP180;11824;51.178;13.546;2024-03-08T00:55:39;100820.00;;;1.30
4421;BMP180;11824;51.178;13.546;2024-03-08T00:58:08;100813.00;;;1.20
4421;BMP180;11824;51.178;13.546;2024-03-08T01:00:37;100810.00;;;1.20
4421;BMP180;11824;51.178;13.546;2024-03-08T01:03:06;100810.00;;;1.10
4421;BMP180;11824;51.178;13.546;2024-03-08T01:05:35;100812.00;;;1.00
4421;BMP180;11824;51.178;13.546;2024-03-08T01:08:05;100811.00;;;1.00
4421;BMP180;11824;51.178;13.546;2024-03-08T01:10:36;100806.00;;;0.90
4421;BMP180;11824;51.178;13.546;2024-03-08T01:13:05;100801.00;;;0.80
4421;BMP180;11824;51.178;13.546;2024-03-08T01:15:34;100794.00;;;0.80
4421;BMP180;11824;51.178;13.546;2024-03-08T01:18:02;100800.00;;;0.70
4421;BMP180;11824;51.178;13.546;2024-03-08T01:20:32;100788.00;;;0.60
4421;BMP180;11824;51.178;13.546;2024-03-08T01:23:01;100787.00;;;0.50
4421;BMP180;11824;51.178;13.546;2024-03-08T01:25:30;100784.00;;;0.50
4421;BMP180;11824;51.178;13.546;2024-03-08T01:28:02;100781.00;;;0.40
4421;BMP180;11824;51.178;13.546;2024-03-08T01:30:30;100784.00;;;0.40
4421;BMP180;11824;51.178;13.546;2024-03-08T01:33:01;100784.00;;;0.30
4421;BMP180;11824;51.178;13.546;2024-03-08T01:35:30;100774.00;;;0.30
4421;BMP180;11824;51.178;13.546;2024-03-08T01:37:59;100778.00;;;0.20
4421;BMP180;11824;51.178;13.546;2024-03-08T01:40:28;100764.00;;;0.10
4421;BMP180;11824;51.178;13.546;2024-03-08T01:42:57;100761.00;;;0.10
4421;BMP180;11824;51.178;13.546;2024-03-08T01:45:27;100761.00;;;0.00
4421;BMP180;11824;51.178;13.546;2024-03-08T01:47:55;100757.00;;;0.00
4421;BMP180;11824;51.178;13.546;2024-03-08T01:50:24;100759.00;;;0.00
4421;BMP180;11824;51.178;13.546;2024-03-08T01:52:53;100753.00;;;-0.10
4421;BMP180;11824;51.178;13.546;2024-03-08T01:55:22;100754.00;;;-0.10
4421;BMP180;11824;51.178;13.546;2024-03-08T01:57:51;100747.00;;;-0.10
4421;BMP180;11824;51.178;13.546;2024-03-08T02:00:20;100740.00;;;-0.20
4421;BMP180;11824;51.178;13.546;2024-03-08T02:02:54;100736.00;;;-0.20
4421;BMP180;11824;51.178;13.546;2024-03-08T02:05:23;100746.00;;;-0.20
4421;BMP180;11824;51.178;13.546;2024-03-08T02:07:52;100742.00;;;-0.30
4421;BMP180;11824;51.178;13.546;2024-03-08T02:10:21;100732.00;;;-0.30
4421;BMP180;11824;51.178;13.546;2024-03-08T02:12:51;100737.00;;;-0.40
4421;BMP180;11824;51.178;13.546;2024-03-08T02:15:20;100738.00;;;-0.40
4421;BMP180;11824;51.178;13.546;2024-03-08T02:17:48;100730.00;;;-0.40
4421;BMP180;11824;51.178;13.546;2024-03-08T02:20:19;100730.00;;;-0.40
4421;BMP180;11824;51.178;13.546;2024-03-08T02:22:49;100740.00;;;-0.50
4421;BMP180;11824;51.178;13.546;2024-03-08T02:25:19;100729.00;;;-0.50
4421;BMP180;11824;51.178;13.546;2024-03-08T02:27:47;100731.00;;;-0.50
4421;BMP180;11824;51.178;13.546;2024-03-08T02:30:16;100725.00;;;-0.60
4421;BMP180;11824;51.178;13.546;2024-03-08T02:32:45;100725.00;;;-0.60
4421;BMP180;11824;51.178;13.546;2024-03-08T02:35:14;100719.00;;;-0.60
4421;BMP180;11824;51.178;13.546;2024-03-08T02:37:43;100717.00;;;-0.60
4421;BMP180;11824;51.178;13.546;2024-03-08T02:40:16;100714.00;;;-0.60
4421;BMP180;11824;51.178;13.546;2024-03-08T02:42:45;100716.00;;;-0.70
4421;BMP180;11824;51.178;13.546;2024-03-08T02:45:13;100717.00;;;-0.70
4421;BMP180;11824;51.178;13.546;2024-03-08T02:47:42;100718.00;;;-0.70
4421;BMP180;11824;51.178;13.546;2024-03-08T02:50:11;100716.00;;;-0.80
4421;BMP180;11824;51.178;13.546;2024-03-08T02:52:43;100717.00;;;-0.80
4421;BMP180;11824;51.178;13.546;2024-03-08T02:55:15;100710.00;;;-0.80
4421;BMP180;11824;51.178;13.546;2024-03-08T02:57:44;100711.00;;;-0.90
4421;BMP180;11824;51.178;13.546;2024-03-08T03:00:14;100711.00;;;-0.90
4421;BMP180;11824;51.178;13.546;2024-03-08T03:02:44;100702.00;;;-0.90
4421;BMP180;11824;51.178;13.546;2024-03-08T03:05:13;100707.00;;;-0.90
4421;BMP180;11824;51.178;13.546;2024-03-08T03:07:42;100703.00;;;-0.90
4421;BMP180;11824;51.178;13.546;2024-03-08T03:10:11;100702.00;;;-0.90
4421;BMP180;11824;51.178;13.546;2024-03-08T03:12:46;100703.00;;;-0.90
4421;BMP180;11824;51.178;13.546;2024-03-08T03:15:16;100702.00;;;-0.90
4421;BMP180;11824;51.178;13.546;2024-03-08T03:17:46;100709.00;;;-0.90
4421;BMP180;11824;51.178;13.546;2024-03-08T03:20:15;100699.00;;;-0.90
4421;BMP180;11824;51.178;13.546;2024-03-08T03:22:50;100696.00;;;-0.90
4421;BMP180;11824;51.178;13.546;2024-03-08T03:25:20;100693.00;;;-0.90
4421;BMP180;11824;51.178;13.546;2024-03-08T03:27:54;100697.00;;;-0.90
4421;BMP180;11824;51.178;13.546;2024-03-08T03:30:24;100705.00;;;-1.00
4421;BMP180;11824;51.178;13.546;2024-03-08T03:32:54;100698.00;;;-1.00
4421;BMP180;11824;51.178;13.546;2024-03-08T03:35:26;100702.00;;;-1.00
4421;BMP180;11824;51.178;13.546;2024-03-08T03:37:55;100696.00;;;-1.00
4421;BMP180;11824;51.178;13.546;2024-03-08T03:40:34;100701.00;;;-1.10
4421;BMP180;11824;51.178;13.546;2024-03-08T03:43:04;100701.00;;;-1.10
4421;BMP180;11824;51.178;13.546;2024-03-08T03:45:33;100698.00;;;-1.10
4421;BMP180;11824;51.178;13.546;2024-03-08T03:48:05;100695.00;;;-1.10
4421;BMP180;11824;51.178;13.546;2024-03-08T03:50:37;100704.00;;;-1.10
4421;BMP180;11824;51.178;13.546;2024-03-08T03:53:08;100691.00;;;-1.10
4421;BMP180;11824;51.178;13.546;2024-03-08T03:55:38;100699.00;;;-1.20
4421;BMP180;11824;51.178;13.546;2024-03-08T03:58:09;100693.00;;;-1.20
4421;BMP180;11824;51.178;13.546;2024-03-08T04:00:38;100686.00;;;-1.20
4421;BMP180;11824;51.178;13.546;2024-03-08T04:03:08;100688.00;;;-1.20
4421;BMP180;11824;51.178;13.546;2024-03-08T04:05:37;100687.00;;;-1.20
4421;BMP180;11824;51.178;13.546;2024-03-08T04:08:06;100696.00;;;-1.20
4421;BMP180;11824;51.178;13.546;2024-03-08T04:10:35;100697.00;;;-1.20
4421;BMP180;11824;51.178;13.546;2024-03-08T04:13:04;100687.00;;;-1.30
4421;BMP180;11824;51.178;13.546;2024-03-08T04:15:34;100688.00;;;-1.30
4421;BMP180;11824;51.178;13.546;2024-03-08T04:18:03;100674.00;;;-1.30
4421;BMP180;11824;51.178;13.546;2024-03-08T04:20:34;100684.00;;;-1.30
4421;BMP180;11824;51.178;13.546;2024-03-08T04:23:03;100688.00;;;-1.30
4421;BMP180;11824;51.178;13.546;2024-03-08T04:25:32;100678.00;;;-1.30
4421;BMP180;11824;51.178;13.546;2024-03-08T04:28:01;100688.00;;;-1.30
4421;BMP180;11824;51.178;13.546;2024-03-08T04:30:30;100687.00;;;-1.40
4421;BMP180;11824;51.178;13.546;2024-03-08T04:33:00;100686.00;;;-1.40
4421;BMP180;11824;51.178;13.546;2024-03-08T04:35:31;100680.00;;;-1.40
4421;BMP180;11824;51.178;13.546;2024-03-08T04:38:00;100676.00;;;-1.40
4421;BMP180;11824;51.178;13.546;2024-03-08T04:40:28;100676.00;;;-1.40
4421;BMP180;11824;51.178;13.546;2024-03-08T04:42:59;100677.00;;;-1.40
4421;BMP180;11824;51.178;13.546;2024-03-08T04:45:27;100677.00;;;-1.40
4421;BMP180;11824;51.178;13.546;2024-03-08T04:47:56;100676.00;;;-1.50
4421;BMP180;11824;51.178;13.546;2024-03-08T04:50:26;100676.00;;;-1.50
4421;BMP180;11824;51.178;13.546;2024-03-08T04:52:56;100666.00;;;-1.50
4421;BMP180;11824;51.178;13.546;2024-03-08T04:55:25;100673.00;;;-1.50
4421;BMP180;11824;51.178;13.546;2024-03-08T04:57:54;100666.00;;;-1.50
4421;BMP180;11824;51.178;13.546;2024-03-08T05:00:22;100667.00;;;-1.50
4421;BMP180;11824;51.178;13.546;2024-03-08T05:02:52;100670.00;;;-1.50
4421;BMP180;11824;51.178;13.546;2024-03-08T05:05:21;100659.00;;;-1.60
4421;BMP180;11824;51.178;13.546;2024-03-08T05:07:51;100663.00;;;-1.60
4421;BMP180;11824;51.178;13.546;2024-03-08T05:10:21;100672.00;;;-1.60
4421;BMP180;11824;51.178;13.546;2024-03-08T05:12:49;100671.00;;;-1.60
4421;BMP180;11824;51.178;13.546;2024-03-08T05:15:23;100667.00;;;-1.60
4421;BMP180;11824;51.178;13.546;2024-03-08T05:17:52;100660.00;;;-1.60
4421;BMP180;11824;51.178;13.546;2024-03-08T05:20:21;100660.00;;;-1.60
4421;BMP180;11824;51.178;13.546;2024-03-08T05:22:51;100662.00;;;-1.60
4421;BMP180;11824;51.178;13.546;2024-03-08T05:25:20;100656.00;;;-1.60
4421;BMP180;11824;51.178;13.546;2024-03-08T05:27:49;100658.00;;;-1.60
4421;BMP180;11824;51.178;13.546;2024-03-08T05:30:18;100663.00;;;-1.60
4421;BMP180;11824;51.178;13.546;2024-03-08T05:32:49;100646.00;;;-1.60
4421;BMP180;11824;51.178;13.546;2024-03-08T05:35:19;100652.00;;;-1.60
4421;BMP180;11824;51.178;13.546;2024-03-08T05:37:48;100651.00;;;-1.60
4421;BMP180;11824;51.178;13.546;2024-03-08T05:40:18;100650.00;;;-1.60
4421;BMP180;11824;51.178;13.546;2024-03-08T05:42:49;100648.00;;;-1.60
4421;BMP180;11824;51.178;13.546;2024-03-08T05:45:18;100647.00;;;-1.60
4421;BMP180;11824;51.178;13.546;2024-03-08T05:47:47;100651.00;;;-1.60
4421;BMP180;11824;51.178;13.546;2024-03-08T05:50:16;100652.00;;;-1.60
4421;BMP180;11824;51.178;13.546;2024-03-08T05:52:45;100650.00;;;-1.60
4421;BMP180;11824;51.178;13.546;2024-03-08T05:55:15;100646.00;;;-1.60
4421;BMP180;11824;51.178;13.546;2024-03-08T05:57:45;100651.00;;;-1.50
4421;BMP180;11824;51.178;13.546;2024-03-08T06:00:14;100647.00;;;-1.40
4421;BMP180;11824;51.178;13.546;2024-03-08T06:02:43;100647.00;;;-1.30
4421;BMP180;11824;51.178;13.546;2024-03-08T06:05:12;100656.00;;;-1.20
4421;BMP180;11824;51.178;13.546;2024-03-08T06:07:41;100660.00;;;-1.10
4421;BMP180;11824;51.178;13.546;2024-03-08T06:10:10;100657.00;;;-1.00
4421;BMP180;11824;51.178;13.546;2024-03-08T06:12:40;100657.00;;;-0.90
4421;BMP180;11824;51.178;13.546;2024-03-08T06:15:11;100646.00;;;-0.90
4421;BMP180;11824;51.178;13.546;2024-03-08T06:17:42;100658.00;;;-0.80
4421;BMP180;11824;51.178;13.546;2024-03-08T06:20:12;100662.00;;;-0.80
4421;BMP180;11824;51.178;13.546;2024-03-08T06:22:41;100655.00;;;-0.70
4421;BMP180;11824;51.178;13.546;2024-03-08T06:25:11;100655.00;;;-0.70
4421;BMP180;11824;51.178;13.546;2024-03-08T06:27:41;100661.00;;;-0.60
4421;BMP180;11824;51.178;13.546;2024-03-08T06:30:12;100654.00;;;-0.60
4421;BMP180;11824;51.178;13.546;2024-03-08T06:32:43;100657.00;;;-0.50
4421;BMP180;11824;51.178;13.546;2024-03-08T06:35:12;100655.00;;;-0.50
4421;BMP180;11824;51.178;13.546;2024-03-08T06:37:43;100656.00;;;-0.40
4421;BMP180;11824;51.178;13.546;2024-03-08T06:40:13;100655.00;;;-0.40
4421;BMP180;11824;51.178;13.546;2024-03-08T06:42:42;100646.00;;;-0.30
4421;BMP180;11824;51.178;13.546;2024-03-08T06:45:12;100652.00;;;-0.20
4421;BMP180;11824;51.178;13.546;2024-03-08T06:47:46;100660.00;;;-0.10
4421;BMP180;11824;51.178;13.546;2024-03-08T06:50:16;100655.00;;;-0.10
4421;BMP180;11824;51.178;13.546;2024-03-08T06:52:44;100655.00;;;0.00
4421;BMP180;11824;51.178;13.546;2024-03-08T06:55:18;100653.00;;;0.10
4421;BMP180;11824;51.178;13.546;2024-03-08T06:57:47;100657.00;;;0.20
4421;BMP180;11824;51.178;13.546;2024-03-08T07:00:17;100658.00;;;0.30
4421;BMP180;11824;51.178;13.546;2024-03-08T07:02:48;100655.00;;;0.40
4421;BMP180;11824;51.178;13.546;2024-03-08T07:05:17;100648.00;;;0.50
4421;BMP180;11824;51.178;13.546;2024-03-08T07:07:46;100647.00;;;0.60
4421;BMP180;11824;51.178;13.546;2024-03-08T07:10:16;100643.00;;;0.60
4421;BMP180;11824;51.178;13.546;2024-03-08T07:12:46;100645.00;;;0.70
4421;BMP180;11824;51.178;13.546;2024-03-08T07:15:16;100641.00;;;0.80
4421;BMP180;11824;51.178;13.546;2024-03-08T07:17:47;100624.00;;;0.90
4421;BMP180;11824;51.178;13.546;2024-03-08T07:20:16;100642.00;;;1.00
4421;BMP180;11824;51.178;13.546;2024-03-08T07:22:46;100631.00;;;1.10
4421;BMP180;11824;51.178;13.546;2024-03-08T07:25:18;100629.00;;;1.20
4421;BMP180;11824;51.178;13.546;2024-03-08T07:27:51;100632.00;;;1.30
4421;BMP180;11824;51.178;13.546;2024-03-08T07:30:23;100636.00;;;1.30
4421;BMP180;11824;51.178;13.546;2024-03-08T07:33:10;100628.00;;;1.40
4421;BMP180;11824;51.178;13.546;2024-03-08T07:35:41;100633.00;;;1.50
4421;BMP180;11824;51.178;13.546;2024-03-08T07:38:11;100629.00;;;1.60
4421;BMP180;11824;51.178;13.546;2024-03-08T07:40:41;100626.00;;;1.70
4421;BMP180;11824;51.178;13.546;2024-03-08T07:43:14;100633.00;;;1.70
4421;BMP180;11824;51.178;13.546;2024-03-08T07:45:46;100621.00;;;1.80
4421;BMP180;11824;51.178;13.546;2024-03-08T07:48:15;100621.00;;;1.90
4421;BMP180;11824;51.178;13.546;2024-03-08T07:50:45;100621.00;;;2.00
4421;BMP180;11824;51.178;13.546;2024-03-08T07:53:14;100620.00;;;2.00
4421;BMP180;11824;51.178;13.546;2024-03-08T07:55:43;100614.00;;;2.10
4421;BMP180;11824;51.178;13.546;2024-03-08T07:58:12;100626.00;;;2.20
4421;BMP180;11824;51.178;13.546;2024-03-08T08:00:41;100624.00;;;2.20
4421;BMP180;11824;51.178;13.546;2024-03-08T08:03:12;100625.00;;;2.30
4421;BMP180;11824;51.178;13.546;2024-03-08T08:05:41;100619.00;;;2.40
4421;BMP180;11824;51.178;13.546;2024-03-08T08:08:09;100621.00;;;2.50
4421;BMP180;11824;51.178;13.546;2024-03-08T08:10:39;100615.00;;;2.60
4421;BMP180;11824;51.178;13.546;2024-03-08T08:13:08;100607.00;;;2.60
4421;BMP180;11824;51.178;13.546;2024-03-08T08:15:37;100609.00;;;2.70
4421;BMP180;11824;51.178;13.546;2024-03-08T08:18:06;100607.00;;;2.80
4421;BMP180;11824;51.178;13.546;2024-03-08T08:20:38;100612.00;;;2.90
4421;BMP180;11824;51.178;13.546;2024-03-08T08:23:07;100600.00;;;3.00
4421;BMP180;11824;51.178;13.546;2024-03-08T08:25:38;100602.00;;;3.10
4421;BMP180;11824;51.178;13.546;2024-03-08T08:28:07;100595.00;;;3.20
4421;BMP180;11824;51.178;13.546;2024-03-08T08:30:35;100596.00;;;3.20
4421;BMP180;11824;51.178;13.546;2024-03-08T08:33:05;100598.00;;;3.30
4421;BMP180;11824;51.178;13.546;2024-03-08T08:35:36;100591.00;;;3.40
4421;BMP180;11824;51.178;13.546;2024-03-08T08:38:06;100583.00;;;3.50
4421;BMP180;11824;51.178;13.546;2024-03-08T08:40:36;100590.00;;;3.60
4421;BMP180;11824;51.178;13.546;2024-03-08T08:43:05;100593.00;;;3.70
4421;BMP180;11824;51.178;13.546;2024-03-08T08:45:34;100594.00;;;3.80
4421;BMP180;11824;51.178;13.546;2024-03-08T08:48:04;100583.00;;;3.90
4421;BMP180;11824;51.178;13.546;2024-03-08T08:50:33;100578.00;;;4.00
4421;BMP180;11824;51.178;13.546;2024-03-08T08:53:02;100580.00;;;4.10
4421;BMP180;11824;51.178;13.546;2024-03-08T08:55:32;100583.00;;;4.20
4421;BMP180;11824;51.178;13.546;2024-03-08T08:58:03;100576.00;;;4.40
4421;BMP180;11824;51.178;13.546;2024-03-08T09:00:32;100570.00;;;4.50
4421;BMP180;11824;51.178;13.546;2024-03-08T09:03:02;100571.00;;;4.60
4421;BMP180;11824;51.178;13.546;2024-03-08T09:05:31;100565.00;;;4.70
4421;BMP180;11824;51.178;13.546;2024-03-08T09:08:03;100563.00;;;4.80
4421;BMP180;11824;51.178;13.546;2024-03-08T09:10:33;100561.00;;;4.90
4421;BMP180;11824;51.178;13.546;2024-03-08T09:13:02;100548.00;;;5.00
4421;BMP180;11824;51.178;13.546;2024-03-08T09:15:31;100561.00;;;5.20
4421;BMP180;11824;51.178;13.546;2024-03-08T09:18:00;100551.00;;;5.30
4421;BMP180;11824;51.178;13.546;2024-03-08T09:20:29;100556.00;;;5.40
4421;BMP180;11824;51.178;13.546;2024-03-08T09:22:59;100551.00;;;5.60
4421;BMP180;11824;51.178;13.546;2024-03-08T09:25:28;100550.00;;;5.70
4421;BMP180;11824;51.178;13.546;2024-03-08T09:27:58;100544.00;;;5.80
4421;BMP180;11824;51.178;13.546;2024-03-08T09:30:26;100542.00;;;5.90
4421;BMP180;11824;51.178;13.546;2024-03-08T09:32:56;100543.00;;;6.00
4421;BMP180;11824;51.178;13.546;2024-03-08T09:35:26;100543.00;;;6.10
4421;BMP180;11824;51.178;13.546;2024-03-08T09:37:54;100542.00;;;6.20
4421;BMP180;11824;51.178;13.546;2024-03-08T09:40:23;100543.00;;;6.30
4421;BMP180;11824;51.178;13.546;2024-03-08T09:42:53;100529.00;;;6.30
4421;BMP180;11824;51.178;13.546;2024-03-08T09:45:25;100530.00;;;6.40
4421;BMP180;11824;51.178;13.546;2024-03-08T09:47:56;100521.00;;;6.50
4421;BMP180;11824;51.178;13.546;2024-03-08T09:50:25;100525.00;;;6.60
4421;BMP180;11824;51.178;13.546;2024-03-08T09:52:56;100518.00;;;6.60
4421;BMP180;11824;51.178;13.546;2024-03-08T09:55:26;100517.00;;;6.70
4421;BMP180;11824;51.178;13.546;2024-03-08T09:58:05;100525.00;;;6.80
4421;BMP180;11824;51.178;13.546;2024-03-08T10:01:05;100525.00;;;6.90
4421;BMP180;11824;51.178;13.546;2024-03-08T10:03:34;100514.00;;;7.00
4421;BMP180;11824;51.178;13.546;2024-03-08T10:06:03;100515.00;;;7.10
4421;BMP180;11824;51.178;13.546;2024-03-08T10:08:33;100509.00;;;7.10
4421;BMP180;11824;51.178;13.546;2024-03-08T10:11:02;100506.00;;;7.20
4421;BMP180;11824;51.178;13.546;2024-03-08T10:13:32;100501.00;;;7.20
4421;BMP180;11824;51.178;13.546;2024-03-08T10:16:01;100504.00;;;7.30
4421;BMP180;11824;51.178;13.546;2024-03-08T10:18:33;100500.00;;;7.40
4421;BMP180;11824;51.178;13.546;2024-03-08T10:21:06;100500.00;;;7.40
4421;BMP180;11824;51.178;13.546;2024-03-08T10:23:37;100501.00;;;7.50
4421;BMP180;11824;51.178;13.546;2024-03-08T10:26:13;100493.00;;;7.60
4421;BMP180;11824;51.178;13.546;2024-03-08T10:28:43;100489.00;;;7.70
4421;BMP180;11824;51.178;13.546;2024-03-08T10:31:12;100489.00;;;7.70
4421;BMP180;11824;51.178;13.546;2024-03-08T10:33:47;100484.00;;;7.80
4421;BMP180;11824;51.178;13.546;2024-03-08T10:36:16;100490.00;;;7.80
4421;BMP180;11824;51.178;13.546;2024-03-08T10:38:46;100483.00;;;7.90
4421;BMP180;11824;51.178;13.546;2024-03-08T10:41:17;100483.00;;;7.90
4421;BMP180;11824;51.178;13.546;2024-03-08T10:44:00;100473.00;;;7.90
4421;BMP180;11824;51.178;13.546;2024-03-08T10:46:44;100468.00;;;8.00
4421;BMP180;11824;51.178;13.546;2024-03-08T10:49:17;100469.00;;;8.00
4421;BMP180;11824;51.178;13.546;2024-03-08T10:51:47;100474.00;;;8.10
4421;BMP180;11824;51.178;13.546;2024-03-08T10:54:19;100466.00;;;8.20
4421;BMP180;11824;51.178;13.546;2024-03-08T10:56:49;100468.00;;;8.30
4421;BMP180;11824;51.178;13.546;2024-03-08T10:59:18;100467.00;;;8.40
4421;BMP180;11824;51.178;13.546;2024-03-08T11:01:48;100464.00;;;8.40
4421;BMP180;11824;51.178;13.546;2024-03-08T11:04:19;100461.00;;;8.50
4421;BMP180;11824;51.178;13.546;2024-03-08T11:06:51;100464.00;;;8.50
4421;BMP180;11824;51.178;13.546;2024-03-08T11:09:30;100460.00;;;8.60
4421;BMP180;11824;51.178;13.546;2024-03-08T11:12:18;100444.00;;;8.60
4421;BMP180;11824;51.178;13.546;2024-03-08T11:14:48;100440.00;;;8.70
4421;BMP180;11824;51.178;13.546;2024-03-08T11:17:21;100444.00;;;8.80
4421;BMP180;11824;51.178;13.546;2024-03-08T11:19:51;100444.00;;;8.80
4421;BMP180;11824;51.178;13.546;2024-03-08T11:22:26;100439.00;;;8.90
4421;BMP180;11824;51.178;13.546;2024-03-08T11:24:59;100437.00;;;8.90
4421;BMP180;11824;51.178;13.546;2024-03-08T11:27:30;100434.00;;;8.90
4421;BMP180;11824;51.178;13.546;2024-03-08T11:30:01;100431.00;;;9.00
4421;BMP180;11824;51.178;13.546;2024-03-08T11:32:45;100420.00;;;9.00
4421;BMP180;11824;51.178;13.546;2024-03-08T11:35:20;100422.00;;;9.10
4421;BMP180;11824;51.178;13.546;2024-03-08T11:37:51;100415.00;;;9.10
4421;BMP180;11824;51.178;13.546;2024-03-08T11:40:20;100418.00;;;9.20
4421;BMP180;11824;51.178;13.546;2024-03-08T11:42:50;100409.00;;;9.20
4421;BMP180;11824;51.178;13.546;2024-03-08T11:45:19;100419.00;;;9.20
4421;BMP180;11824;51.178;13.546;2024-03-08T11:47:49;100408.00;;;9.20
4421;BMP180;11824;51.178;13.546;2024-03-08T11:50:23;100402.00;;;9.30
4421;BMP180;11824;51.178;13.546;2024-03-08T11:52:52;100387.00;;;9.30
4421;BMP180;11824;51.178;13.546;2024-03-08T11:55:21;100390.00;;;9.30
4421;BMP180;11824;51.178;13.546;2024-03-08T11:58:00;100387.00;;;9.40
4421;BMP180;11824;51.178;13.546;2024-03-08T12:00:29;100393.00;;;9.40
4421;BMP180;11824;51.178;13.546;2024-03-08T12:03:04;100387.00;;;9.50
4421;BMP180;11824;51.178;13.546;2024-03-08T12:05:35;100387.00;;;9.50
4421;BMP180;11824;51.178;13.546;2024-03-08T12:08:05;100382.00;;;9.60
4421;BMP180;11824;51.178;13.546;2024-03-08T12:10:36;100374.00;;;9.70
4421;BMP180;11824;51.178;13.546;2024-03-08T12:13:06;100360.00;;;9.70
4421;BMP180;11824;51.178;13.546;2024-03-08T12:15:40;100369.00;;;9.80
4421;BMP180;11824;51.178;13.546;2024-03-08T12:18:11;100366.00;;;9.80
4421;BMP180;11824;51.178;13.546;2024-03-08T12:20:41;100358.00;;;9.80
4421;BMP180;11824;51.178;13.546;2024-03-08T12:23:16;100366.00;;;9.90
4421;BMP180;11824;51.178;13.546;2024-03-08T12:25:45;100360.00;;;9.90
4421;BMP180;11824;51.178;13.546;2024-03-08T12:28:15;100362.00;;;9.90
4421;BMP180;11824;51.178;13.546;2024-03-08T12:30:47;100348.00;;;9.90
4421;BMP180;11824;51.178;13.546;2024-03-08T12:33:16;100357.00;;;9.90
4421;BMP180;11824;51.178;13.546;2024-03-08T12:35:52;100355.00;;;10.00
4421;BMP180;11824;51.178;13.546;2024-03-08T12:38:23;100344.00;;;10.00
4421;BMP180;11824;51.178;13.546;2024-03-08T12:40:57;100347.00;;;10.00
4421;BMP180;11824;51.178;13.546;2024-03-08T12:43:27;100335.00;;;9.90
4421;BMP180;11824;51.178;13.546;2024-03-08T12:45:59;100335.00;;;9.90
4421;BMP180;11824;51.178;13.546;2024-03-08T12:48:27;100333.00;;;9.90
4421;BMP180;11824;51.178;13.546;2024-03-08T12:50:58;100319.00;;;10.00
4421;BMP180;11824;51.178;13.546;2024-03-08T12:53:28;100326.00;;;10.00
4421;BMP180;11824;51.178;13.546;2024-03-08T12:55:57;100320.00;;;10.00
4421;BMP180;11824;51.178;13.546;2024-03-08T12:58:26;100316.00;;;10.00
4421;BMP180;11824;51.178;13.546;2024-03-08T13:00:55;100320.00;;;10.00
4421;BMP180;11824;51.178;13.546;2024-03-08T13:03:24;100319.00;;;10.00
4421;BMP180;11824;51.178;13.546;2024-03-08T13:06:05;100316.00;;;10.10
4421;BMP180;11824;51.178;13.546;2024-03-08T13:08:35;100303.00;;;10.10
4421;BMP180;11824;51.178;13.546;2024-03-08T13:11:06;100299.00;;;10.10
4421;BMP180;11824;51.178;13.546;2024-03-08T13:13:36;100299.00;;;10.10
4421;BMP180;11824;51.178;13.546;2024-03-08T13:16:07;100293.00;;;10.20
4421;BMP180;11824;51.178;13.546;2024-03-08T13:18:37;100289.00;;;10.10
4421;BMP180;11824;51.178;13.546;2024-03-08T13:21:07;100286.00;;;10.20
4421;BMP180;11824;51.178;13.546;2024-03-08T13:23:37;100287.00;;;10.20
4421;BMP180;11824;51.178;13.546;2024-03-08T13:26:08;100279.00;;;10.20
4421;BMP180;11824;51.178;13.546;2024-03-08T13:28:39;100279.00;;;10.30
4421;BMP180;11824;51.178;13.546;2024-03-08T13:31:08;100286.00;;;10.30
4421;BMP180;11824;51.178;13.546;2024-03-08T13:33:38;100277.00;;;10.30
4421;BMP180;11824;51.178;13.546;2024-03-08T13:36:10;100272.00;;;10.30
4421;BMP180;11824;51.178;13.546;2024-03-08T13:38:43;100269.00;;;10.30
4421;BMP180;11824;51.178;13.546;2024-03-08T13:41:12;100265.00;;;10.30
4421;BMP180;11824;51.178;13.546;2024-03-08T13:43:42;100271.00;;;10.30
4421;BMP180;11824;51.178;13.546;2024-03-08T13:46:11;100269.00;;;10.30
4421;BMP180;11824;51.178;13.546;2024-03-08T13:48:40;100261.00;;;10.30
4421;BMP180;11824;51.178;13.546;2024-03-08T13:51:11;100260.00;;;10.40
4421;BMP180;11824;51.178;13.546;2024-03-08T13:53:43;100250.00;;;10.40
4421;BMP180;11824;51.178;13.546;2024-03-08T13:56:11;100254.00;;;10.40
4421;BMP180;11824;51.178;13.546;2024-03-08T13:58:42;100247.00;;;10.50
4421;BMP180;11824;51.178;13.546;2024-03-08T14:01:11;100250.00;;;10.50
4421;BMP180;11824;51.178;13.546;2024-03-08T14:03:40;100249.00;;;10.50
4421;BMP180;11824;51.178;13.546;2024-03-08T14:06:11;100240.00;;;10.50
4421;BMP180;11824;51.178;13.546;2024-03-08T14:08:50;100230.00;;;10.50
4421;BMP180;11824;51.178;13.546;2024-03-08T14:11:19;100231.00;;;10.50
4421;BMP180;11824;51.178;13.546;2024-03-08T14:13:47;100234.00;;;10.50
4421;BMP180;11824;51.178;13.546;2024-03-08T14:16:16;100227.00;;;10.50
4421;BMP180;11824;51.178;13.546;2024-03-08T14:18:45;100227.00;;;10.50
4421;BMP180;11824;51.178;13.546;2024-03-08T14:21:16;100223.00;;;10.50
4421;BMP180;11824;51.178;13.546;2024-03-08T14:23:45;100225.00;;;10.50